sensor_id;sensor_type;location;lat;lon;timestamp;temperature;humidity
21163;DHT22;10739;52.198;20.908;2023-04-09T00:01:57;8.10;99.90
21163;DHT22;10739;52.198;20.908;2023-04-09T00:04:23;8.20;99.90
21163;DHT22;10739;52.198;20.908;2023-04-09T00:06:49;8.10;99.90
21163;DHT22;10739;52.198;20.908;2023-04-09T00:09:16;8.10;99.90
21163;DHT22;10739;52.198;20.908;2023-04-09T00:11:42;8.10;99.90
21163;DHT22;10739;52.198;20.908;2023-04-09T00:14:09;8.20;99.90
21163;DHT22;10739;52.198;20.908;2023-04-09T00:16:35;8.20;99.90
21163;DHT22;10739;52.198;20.908;2023-04-09T00:19:01;8.10;99.90
21163;DHT22;10739;52.198;20.908;2023-04-09T00:21:28;8.10;99.90
21163;DHT22;10739;52.198;20.908;2023-04-09T00:23:54;8.20;99.90
21163;DHT22;10739;52.198;20.908;2023-04-09T00:26:20;8.20;99.90
21163;DHT22;10739;52.198;20.908;2023-04-09T00:28:47;8.20;99.90
21163;DHT22;10739;52.198;20.908;2023-04-09T00:31:13;8.20;99.90
21163;DHT22;10739;52.198;20.908;2023-04-09T00:33:39;8.20;99.90
21163;DHT22;10739;52.198;20.908;2023-04-09T00:36:06;8.20;99.90
21163;DHT22;10739;52.198;20.908;2023-04-09T00:38:32;8.20;99.90
21163;DHT22;10739;52.198;20.908;2023-04-09T00:40:59;8.20;99.90
21163;DHT22;10739;52.198;20.908;2023-04-09T00:43:25;8.20;99.90
21163;DHT22;10739;52.198;20.908;2023-04-09T00:45:51;8.20;99.90
21163;DHT22;10739;52.198;20.908;2023-04-09T00:48:18;8.20;99.90
21163;DHT22;10739;52.198;20.908;2023-04-09T00:50:44;8.10;99.90
21163;DHT22;10739;52.198;20.908;2023-04-09T00:53:11;8.10;99.90
21163;DHT22;10739;52.198;20.908;2023-04-09T00:55:39;8.10;99.90
21163;DHT22;10739;52.198;20.908;2023-04-09T00:58:06;8.10;99.90
21163;DHT22;10739;52.198;20.908;2023-04-09T01:00:33;8.10;99.90
21163;DHT22;10739;52.198;20.908;2023-04-09T01:02:59;8.10;99.90
21163;DHT22;10739;52.198;20.908;2023-04-09T01:14:38;8.00;99.90
21163;DHT22;10739;52.198;20.908;2023-04-09T01:17:24;8.00;99.90
21163;DHT22;10739;52.198;20.908;2023-04-09T01:20:12;8.00;99.90
21163;DHT22;10739;52.198;20.908;2023-04-09T01:28:24;8.20;99.90
21163;DHT22;10739;52.198;20.908;2023-04-09T01:31:06;8.20;99.90
21163;DHT22;10739;52.198;20.908;2023-04-09T01:33:39;8.20;99.90
21163;DHT22;10739;52.198;20.908;2023-04-09T01:36:07;8.30;99.90
21163;DHT22;10739;52.198;20.908;2023-04-09T01:38:40;8.30;99.90
21163;DHT22;10739;52.198;20.908;2023-04-09T01:41:10;8.20;99.90
21163;DHT22;10739;52.198;20.908;2023-04-09T01:43:40;8.20;99.90
21163;DHT22;10739;52.198;20.908;2023-04-09T01:46:08;8.20;99.90
21163;DHT22;10739;52.198;20.908;2023-04-09T01:48:37;8.20;99.90
21163;DHT22;10739;52.198;20.908;2023-04-09T01:51:04;8.20;99.90
21163;DHT22;10739;52.198;20.908;2023-04-09T01:53:30;8.20;99.90
21163;DHT22;10739;52.198;20.908;2023-04-09T01:56:00;8.10;99.90
21163;DHT22;10739;52.198;20.908;2023-04-09T01:58:27;8.10;99.90
21163;DHT22;10739;52.198;20.908;2023-04-09T02:01:01;8.10;99.90
21163;DHT22;10739;52.198;20.908;2023-04-09T02:03:36;8.00;99.90
21163;DHT22;10739;52.198;20.908;2023-04-09T02:09:07;8.00;99.90
21163;DHT22;10739;52.198;20.908;2023-04-09T02:11:41;7.90;99.90
21163;DHT22;10739;52.198;20.908;2023-04-09T02:14:08;7.90;99.90
21163;DHT22;10739;52.198;20.908;2023-04-09T02:16:36;7.90;99.90
21163;DHT22;10739;52.198;20.908;2023-04-09T02:19:04;7.90;99.90
21163;DHT22;10739;52.198;20.908;2023-04-09T02:21:31;7.80;99.90
21163;DHT22;10739;52.198;20.908;2023-04-09T02:23:57;7.80;99.90
21163;DHT22;10739;52.198;20.908;2023-04-09T02:26:24;7.80;99.90
21163;DHT22;10739;52.198;20.908;2023-04-09T02:28:51;7.80;99.90
21163;DHT22;10739;52.198;20.908;2023-04-09T02:31:17;7.80;99.90
21163;DHT22;10739;52.198;20.908;2023-04-09T02:33:43;7.90;99.90
21163;DHT22;10739;52.198;20.908;2023-04-09T02:36:11;7.90;99.90
21163;DHT22;10739;52.198;20.908;2023-04-09T02:38:40;7.90;99.90
21163;DHT22;10739;52.198;20.908;2023-04-09T02:41:07;7.80;99.90
21163;DHT22;10739;52.198;20.908;2023-04-09T02:43:34;7.80;99.90
21163;DHT22;10739;52.198;20.908;2023-04-09T02:46:01;7.80;99.90
21163;DHT22;10739;52.198;20.908;2023-04-09T02:48:27;7.80;99.90
21163;DHT22;10739;52.198;20.908;2023-04-09T02:50:53;7.80;99.90
21163;DHT22;10739;52.198;20.908;2023-04-09T02:53:20;7.80;99.90
21163;DHT22;10739;52.198;20.908;2023-04-09T02:55:46;7.80;99.90
21163;DHT22;10739;52.198;20.908;2023-04-09T02:58:12;7.80;99.90
21163;DHT22;10739;52.198;20.908;2023-04-09T03:00:39;7.90;99.90
21163;DHT22;10739;52.198;20.908;2023-04-09T03:03:05;7.90;99.90
21163;DHT22;10739;52.198;20.908;2023-04-09T03:05:31;7.90;99.90
21163;DHT22;10739;52.198;20.908;2023-04-09T03:07:58;7.90;99.90
21163;DHT22;10739;52.198;20.908;2023-04-09T03:10:24;8.10;99.90
21163;DHT22;10739;52.198;20.908;2023-04-09T03:12:50;8.00;99.90
21163;DHT22;10739;52.198;20.908;2023-04-09T03:15:16;8.00;99.90
21163;DHT22;10739;52.198;20.908;2023-04-09T03:17:43;8.00;99.90
21163;DHT22;10739;52.198;20.908;2023-04-09T03:20:09;8.00;99.90
21163;DHT22;10739;52.198;20.908;2023-04-09T03:22:36;8.00;99.90
21163;DHT22;10739;52.198;20.908;2023-04-09T03:25:04;8.00;99.90
21163;DHT22;10739;52.198;20.908;2023-04-09T03:27:31;7.90;99.90
21163;DHT22;10739;52.198;20.908;2023-04-09T03:29:58;7.90;99.90
21163;DHT22;10739;52.198;20.908;2023-04-09T03:32:24;7.90;99.90
21163;DHT22;10739;52.198;20.908;2023-04-09T03:34:50;7.80;99.90
21163;DHT22;10739;52.198;20.908;2023-04-09T03:37:17;7.80;99.90
21163;DHT22;10739;52.198;20.908;2023-04-09T03:39:43;7.80;99.90
21163;DHT22;10739;52.198;20.908;2023-04-09T03:42:09;7.70;99.90
21163;DHT22;10739;52.198;20.908;2023-04-09T03:44:36;7.70;99.90
21163;DHT22;10739;52.198;20.908;2023-04-09T03:47:02;7.60;99.90
21163;DHT22;10739;52.198;20.908;2023-04-09T03:49:28;7.70;99.90
21163;DHT22;10739;52.198;20.908;2023-04-09T03:51:54;7.60;99.90
21163;DHT22;10739;52.198;20.908;2023-04-09T03:54:21;7.70;99.90
21163;DHT22;10739;52.198;20.908;2023-04-09T03:56:47;7.80;99.90
21163;DHT22;10739;52.198;20.908;2023-04-09T03:59:13;7.80;99.90
21163;DHT22;10739;52.198;20.908;2023-04-09T04:01:39;7.80;99.90
21163;DHT22;10739;52.198;20.908;2023-04-09T04:04:06;7.80;99.90
21163;DHT22;10739;52.198;20.908;2023-04-09T04:06:33;7.80;99.90
21163;DHT22;10739;52.198;20.908;2023-04-09T04:09:00;7.70;99.90
21163;DHT22;10739;52.198;20.908;2023-04-09T04:11:26;7.60;99.90
21163;DHT22;10739;52.198;20.908;2023-04-09T04:13:53;7.50;99.90
21163;DHT22;10739;52.198;20.908;2023-04-09T04:16:21;7.40;99.90
21163;DHT22;10739;52.198;20.908;2023-04-09T04:18:47;7.30;99.90
21163;DHT22;10739;52.198;20.908;2023-04-09T04:21:14;7.30;99.90
21163;DHT22;10739;52.198;20.908;2023-04-09T04:23:41;7.30;99.90
21163;DHT22;10739;52.198;20.908;2023-04-09T04:26:09;7.30;99.90
21163;DHT22;10739;52.198;20.908;2023-04-09T04:28:36;7.30;99.90
21163;DHT22;10739;52.198;20.908;2023-04-09T04:31:10;7.30;99.90
21163;DHT22;10739;52.198;20.908;2023-04-09T04:33:39;7.30;99.90
21163;DHT22;10739;52.198;20.908;2023-04-09T04:36:11;7.30;99.90
21163;DHT22;10739;52.198;20.908;2023-04-09T04:38:39;7.40;99.90
21163;DHT22;10739;52.198;20.908;2023-04-09T04:41:06;7.40;99.90
21163;DHT22;10739;52.198;20.908;2023-04-09T04:43:33;7.40;99.90
21163;DHT22;10739;52.198;20.908;2023-04-09T04:45:59;7.50;99.90
21163;DHT22;10739;52.198;20.908;2023-04-09T04:48:27;7.50;99.90
21163;DHT22;10739;52.198;20.908;2023-04-09T04:50:56;7.60;99.90
21163;DHT22;10739;52.198;20.908;2023-04-09T04:53:24;7.60;99.90
21163;DHT22;10739;52.198;20.908;2023-04-09T04:55:50;7.60;99.90
21163;DHT22;10739;52.198;20.908;2023-04-09T04:58:17;7.60;99.90
21163;DHT22;10739;52.198;20.908;2023-04-09T05:00:44;7.70;99.90
21163;DHT22;10739;52.198;20.908;2023-04-09T05:03:10;7.80;99.90
21163;DHT22;10739;52.198;20.908;2023-04-09T05:05:37;7.80;99.90
21163;DHT22;10739;52.198;20.908;2023-04-09T05:08:03;7.80;99.90
21163;DHT22;10739;52.198;20.908;2023-04-09T05:10:30;7.80;99.90
21163;DHT22;10739;52.198;20.908;2023-04-09T05:12:56;7.80;99.90
21163;DHT22;10739;52.198;20.908;2023-04-09T05:15:22;7.80;99.90
21163;DHT22;10739;52.198;20.908;2023-04-09T05:17:48;7.90;99.90
21163;DHT22;10739;52.198;20.908;2023-04-09T05:20:15;7.90;99.90
21163;DHT22;10739;52.198;20.908;2023-04-09T05:22:41;7.90;99.90
21163;DHT22;10739;52.198;20.908;2023-04-09T05:25:08;7.90;99.90
21163;DHT22;10739;52.198;20.908;2023-04-09T05:27:35;8.00;99.90
21163;DHT22;10739;52.198;20.908;2023-04-09T05:30:02;8.10;99.90
21163;DHT22;10739;52.198;20.908;2023-04-09T05:32:28;8.20;99.90
21163;DHT22;10739;52.198;20.908;2023-04-09T05:34:55;8.20;99.90
21163;DHT22;10739;52.198;20.908;2023-04-09T05:37:21;8.20;99.90
21163;DHT22;10739;52.198;20.908;2023-04-09T05:39:47;8.30;99.90
21163;DHT22;10739;52.198;20.908;2023-04-09T05:42:13;8.30;99.90
21163;DHT22;10739;52.198;20.908;2023-04-09T05:44:40;8.30;99.90
21163;DHT22;10739;52.198;20.908;2023-04-09T05:47:06;8.40;99.90
21163;DHT22;10739;52.198;20.908;2023-04-09T05:49:32;8.40;99.90
21163;DHT22;10739;52.198;20.908;2023-04-09T05:51:59;8.40;99.90
21163;DHT22;10739;52.198;20.908;2023-04-09T05:54:25;8.40;99.90
21163;DHT22;10739;52.198;20.908;2023-04-09T05:56:51;8.50;99.90
21163;DHT22;10739;52.198;20.908;2023-04-09T05:59:18;8.60;99.90
21163;DHT22;10739;52.198;20.908;2023-04-09T06:01:44;8.60;99.90
21163;DHT22;10739;52.198;20.908;2023-04-09T06:04:11;8.60;99.90
21163;DHT22;10739;52.198;20.908;2023-04-09T06:06:37;8.70;99.90
21163;DHT22;10739;52.198;20.908;2023-04-09T06:09:04;8.80;99.90
21163;DHT22;10739;52.198;20.908;2023-04-09T06:11:31;9.00;99.90
21163;DHT22;10739;52.198;20.908;2023-04-09T06:13:58;9.10;99.90
21163;DHT22;10739;52.198;20.908;2023-04-09T06:16:24;9.20;99.90
21163;DHT22;10739;52.198;20.908;2023-04-09T06:18:51;9.20;99.90
21163;DHT22;10739;52.198;20.908;2023-04-09T06:21:19;9.10;99.90
21163;DHT22;10739;52.198;20.908;2023-04-09T06:23:45;9.20;99.90
21163;DHT22;10739;52.198;20.908;2023-04-09T06:26:12;9.30;99.90
21163;DHT22;10739;52.198;20.908;2023-04-09T06:28:38;9.30;99.90
21163;DHT22;10739;52.198;20.908;2023-04-09T06:31:04;9.40;99.90
21163;DHT22;10739;52.198;20.908;2023-04-09T06:33:31;9.40;99.90
21163;DHT22;10739;52.198;20.908;2023-04-09T06:35:57;9.40;99.90
21163;DHT22;10739;52.198;20.908;2023-04-09T06:38:24;9.40;99.90
21163;DHT22;10739;52.198;20.908;2023-04-09T06:40:50;9.40;99.90
21163;DHT22;10739;52.198;20.908;2023-04-09T06:43:16;9.40;99.90
21163;DHT22;10739;52.198;20.908;2023-04-09T06:45:43;9.50;99.90
21163;DHT22;10739;52.198;20.908;2023-04-09T06:48:10;9.50;99.90
21163;DHT22;10739;52.198;20.908;2023-04-09T06:50:36;9.60;99.90
21163;DHT22;10739;52.198;20.908;2023-04-09T06:53:05;9.80;99.90
21163;DHT22;10739;52.198;20.908;2023-04-09T06:55:31;9.90;99.90
21163;DHT22;10739;52.198;20.908;2023-04-09T06:57:57;10.00;99.90
21163;DHT22;10739;52.198;20.908;2023-04-09T07:00:24;10.00;99.90
21163;DHT22;10739;52.198;20.908;2023-04-09T07:02:51;10.10;99.90
21163;DHT22;10739;52.198;20.908;2023-04-09T07:05:18;10.30;99.90
21163;DHT22;10739;52.198;20.908;2023-04-09T07:07:44;10.50;99.90
21163;DHT22;10739;52.198;20.908;2023-04-09T07:10:11;10.50;99.90
21163;DHT22;10739;52.198;20.908;2023-04-09T07:12:37;10.70;99.90
21163;DHT22;10739;52.198;20.908;2023-04-09T07:15:05;10.80;99.90
21163;DHT22;10739;52.198;20.908;2023-04-09T07:17:32;10.80;99.90
21163;DHT22;10739;52.198;20.908;2023-04-09T07:20:00;10.60;99.90
21163;DHT22;10739;52.198;20.908;2023-04-09T07:22:28;10.80;99.90
21163;DHT22;10739;52.198;20.908;2023-04-09T07:24:55;10.80;99.90
21163;DHT22;10739;52.198;20.908;2023-04-09T07:27:25;11.00;99.90
21163;DHT22;10739;52.198;20.908;2023-04-09T07:29:56;11.10;99.90
21163;DHT22;10739;52.198;20.908;2023-04-09T07:32:25;11.20;99.90
21163;DHT22;10739;52.198;20.908;2023-04-09T07:34:55;11.20;99.90
21163;DHT22;10739;52.198;20.908;2023-04-09T07:37:22;11.40;99.90
21163;DHT22;10739;52.198;20.908;2023-04-09T07:39:49;11.50;99.90
21163;DHT22;10739;52.198;20.908;2023-04-09T07:42:16;11.50;99.90
21163;DHT22;10739;52.198;20.908;2023-04-09T07:44:42;11.50;99.90
21163;DHT22;10739;52.198;20.908;2023-04-09T07:47:08;11.70;99.90
21163;DHT22;10739;52.198;20.908;2023-04-09T07:49:36;11.80;99.90
21163;DHT22;10739;52.198;20.908;2023-04-09T07:52:05;12.00;99.90
21163;DHT22;10739;52.198;20.908;2023-04-09T07:54:33;12.00;99.90
21163;DHT22;10739;52.198;20.908;2023-04-09T07:57:00;12.10;99.90
21163;DHT22;10739;52.198;20.908;2023-04-09T07:59:27;11.90;99.90
21163;DHT22;10739;52.198;20.908;2023-04-09T08:01:55;11.90;99.90
21163;DHT22;10739;52.198;20.908;2023-04-09T08:04:22;12.00;99.90
21163;DHT22;10739;52.198;20.908;2023-04-09T08:06:48;12.00;99.90
21163;DHT22;10739;52.198;20.908;2023-04-09T08:09:19;12.20;99.90
21163;DHT22;10739;52.198;20.908;2023-04-09T08:11:46;12.20;99.90
21163;DHT22;10739;52.198;20.908;2023-04-09T08:14:14;12.20;99.90
21163;DHT22;10739;52.198;20.908;2023-04-09T08:16:44;12.20;99.90
21163;DHT22;10739;52.198;20.908;2023-04-09T08:19:12;12.30;99.90
21163;DHT22;10739;52.198;20.908;2023-04-09T08:21:40;12.40;99.90
21163;DHT22;10739;52.198;20.908;2023-04-09T08:24:11;12.60;99.90
21163;DHT22;10739;52.198;20.908;2023-04-09T08:26:38;12.70;99.90
21163;DHT22;10739;52.198;20.908;2023-04-09T08:29:05;12.80;99.90
21163;DHT22;10739;52.198;20.908;2023-04-09T08:31:33;12.90;99.90
21163;DHT22;10739;52.198;20.908;2023-04-09T08:34:01;12.70;99.90
21163;DHT22;10739;52.198;20.908;2023-04-09T08:36:28;12.80;99.90
21163;DHT22;10739;52.198;20.908;2023-04-09T08:38:54;12.90;99.90
21163;DHT22;10739;52.198;20.908;2023-04-09T08:41:22;12.90;99.90
21163;DHT22;10739;52.198;20.908;2023-04-09T08:43:51;12.60;99.90
21163;DHT22;10739;52.198;20.908;2023-04-09T08:46:20;12.60;99.90
21163;DHT22;10739;52.198;20.908;2023-04-09T08:48:49;12.60;99.90
21163;DHT22;10739;52.198;20.908;2023-04-09T08:51:18;12.80;99.90
21163;DHT22;10739;52.198;20.908;2023-04-09T08:53:48;12.90;99.90
21163;DHT22;10739;52.198;20.908;2023-04-09T08:56:21;13.00;99.90
21163;DHT22;10739;52.198;20.908;2023-04-09T08:58:48;12.90;99.90
21163;DHT22;10739;52.198;20.908;2023-04-09T09:01:22;12.90;99.90
21163;DHT22;10739;52.198;20.908;2023-04-09T09:04:05;13.00;99.90
21163;DHT22;10739;52.198;20.908;2023-04-09T09:06:34;13.10;99.90
21163;DHT22;10739;52.198;20.908;2023-04-09T09:09:15;13.20;99.90
21163;DHT22;10739;52.198;20.908;2023-04-09T09:11:47;13.20;99.90
21163;DHT22;10739;52.198;20.908;2023-04-09T09:14:18;13.20;99.90
21163;DHT22;10739;52.198;20.908;2023-04-09T09:21:56;13.20;99.90
21163;DHT22;10739;52.198;20.908;2023-04-09T09:24:24;13.30;99.90
21163;DHT22;10739;52.198;20.908;2023-04-09T09:26:51;13.40;99.90
21163;DHT22;10739;52.198;20.908;2023-04-09T09:29:19;13.50;99.90
21163;DHT22;10739;52.198;20.908;2023-04-09T09:31:48;13.60;99.90
21163;DHT22;10739;52.198;20.908;2023-04-09T09:34:16;13.80;99.90
21163;DHT22;10739;52.198;20.908;2023-04-09T09:36:44;13.90;99.90
21163;DHT22;10739;52.198;20.908;2023-04-09T09:39:13;13.80;99.90
21163;DHT22;10739;52.198;20.908;2023-04-09T09:41:43;13.80;99.90
21163;DHT22;10739;52.198;20.908;2023-04-09T09:44:11;13.90;99.90
21163;DHT22;10739;52.198;20.908;2023-04-09T09:46:54;14.00;99.90
21163;DHT22;10739;52.198;20.908;2023-04-09T09:49:21;14.00;99.90
21163;DHT22;10739;52.198;20.908;2023-04-09T09:51:48;14.30;99.90
21163;DHT22;10739;52.198;20.908;2023-04-09T09:54:18;14.70;99.90
21163;DHT22;10739;52.198;20.908;2023-04-09T09:56:51;14.90;99.90
21163;DHT22;10739;52.198;20.908;2023-04-09T09:59:22;14.80;99.90
21163;DHT22;10739;52.198;20.908;2023-04-09T10:01:59;15.00;99.90
21163;DHT22;10739;52.198;20.908;2023-04-09T10:04:32;14.80;99.90
21163;DHT22;10739;52.198;20.908;2023-04-09T10:07:06;14.90;99.90
21163;DHT22;10739;52.198;20.908;2023-04-09T10:09:41;15.00;99.90
21163;DHT22;10739;52.198;20.908;2023-04-09T10:12:13;16.10;99.90
21163;DHT22;10739;52.198;20.908;2023-04-09T10:14:40;18.10;99.90
21163;DHT22;10739;52.198;20.908;2023-04-09T10:17:08;19.10;94.40
21163;DHT22;10739;52.198;20.908;2023-04-09T10:19:38;18.00;93.30
21163;DHT22;10739;52.198;20.908;2023-04-09T10:22:16;17.20;98.70
21163;DHT22;10739;52.198;20.908;2023-04-09T10:24:45;16.30;96.90
21163;DHT22;10739;52.198;20.908;2023-04-09T10:27:13;15.60;99.90
21163;DHT22;10739;52.198;20.908;2023-04-09T10:29:45;15.30;99.90
21163;DHT22;10739;52.198;20.908;2023-04-09T10:32:20;15.10;99.90
21163;DHT22;10739;52.198;20.908;2023-04-09T10:34:49;15.10;99.90
21163;DHT22;10739;52.198;20.908;2023-04-09T10:37:24;15.10;99.90
21163;DHT22;10739;52.198;20.908;2023-04-09T10:39:52;15.30;99.90
21163;DHT22;10739;52.198;20.908;2023-04-09T10:42:19;15.30;99.90
21163;DHT22;10739;52.198;20.908;2023-04-09T10:45:11;15.20;99.90
21163;DHT22;10739;52.198;20.908;2023-04-09T10:47:40;16.10;99.90
21163;DHT22;10739;52.198;20.908;2023-04-09T10:50:16;16.40;99.90
21163;DHT22;10739;52.198;20.908;2023-04-09T10:52:44;16.30;98.90
21163;DHT22;10739;52.198;20.908;2023-04-09T10:55:31;16.00;99.90
21163;DHT22;10739;52.198;20.908;2023-04-09T10:58:06;15.60;99.90
21163;DHT22;10739;52.198;20.908;2023-04-09T11:00:42;15.30;99.90
21163;DHT22;10739;52.198;20.908;2023-04-09T11:03:28;15.10;99.90
21163;DHT22;10739;52.198;20.908;2023-04-09T11:06:01;15.10;99.90
21163;DHT22;10739;52.198;20.908;2023-04-09T11:08:32;14.80;99.90
21163;DHT22;10739;52.198;20.908;2023-04-09T11:10:59;14.70;99.90
21163;DHT22;10739;52.198;20.908;2023-04-09T11:13:26;14.50;99.90
21163;DHT22;10739;52.198;20.908;2023-04-09T11:15:55;14.40;99.90
21163;DHT22;10739;52.198;20.908;2023-04-09T11:18:24;14.30;99.90
21163;DHT22;10739;52.198;20.908;2023-04-09T11:21:00;14.30;99.90
21163;DHT22;10739;52.198;20.908;2023-04-09T11:23:31;14.40;99.90
21163;DHT22;10739;52.198;20.908;2023-04-09T11:25:58;14.60;99.90
21163;DHT22;10739;52.198;20.908;2023-04-09T11:28:25;14.80;99.90
21163;DHT22;10739;52.198;20.908;2023-04-09T11:30:52;14.90;99.90
21163;DHT22;10739;52.198;20.908;2023-04-09T11:33:19;15.10;99.90
21163;DHT22;10739;52.198;20.908;2023-04-09T11:35:45;15.30;99.90
21163;DHT22;10739;52.198;20.908;2023-04-09T11:38:12;15.40;99.90
21163;DHT22;10739;52.198;20.908;2023-04-09T11:40:42;15.40;99.90
21163;DHT22;10739;52.198;20.908;2023-04-09T11:43:16;15.50;99.90
21163;DHT22;10739;52.198;20.908;2023-04-09T11:45:43;15.50;99.90
21163;DHT22;10739;52.198;20.908;2023-04-09T11:48:11;15.50;99.90
21163;DHT22;10739;52.198;20.908;2023-04-09T11:50:39;15.70;99.90
21163;DHT22;10739;52.198;20.908;2023-04-09T11:53:21;15.90;99.90
21163;DHT22;10739;52.198;20.908;2023-04-09T11:55:50;15.90;99.90
21163;DHT22;10739;52.198;20.908;2023-04-09T11:58:21;15.70;99.90
21163;DHT22;10739;52.198;20.908;2023-04-09T12:00:52;15.40;99.90
21163;DHT22;10739;52.198;20.908;2023-04-09T12:03:29;15.20;99.90
21163;DHT22;10739;52.198;20.908;2023-04-09T12:06:00;15.20;99.90
21163;DHT22;10739;52.198;20.908;2023-04-09T12:08:27;15.00;99.90
21163;DHT22;10739;52.198;20.908;2023-04-09T12:10:53;14.80;99.90
21163;DHT22;10739;52.198;20.908;2023-04-09T12:13:20;15.00;99.90
21163;DHT22;10739;52.198;20.908;2023-04-09T12:15:48;15.00;99.90
21163;DHT22;10739;52.198;20.908;2023-04-09T12:18:14;15.10;99.90
21163;DHT22;10739;52.198;20.908;2023-04-09T12:20:42;15.10;99.90
21163;DHT22;10739;52.198;20.908;2023-04-09T12:23:11;15.30;99.90
21163;DHT22;10739;52.198;20.908;2023-04-09T12:25:40;15.30;99.90
21163;DHT22;10739;52.198;20.908;2023-04-09T12:28:11;15.30;99.90
21163;DHT22;10739;52.198;20.908;2023-04-09T12:30:40;15.40;99.90
21163;DHT22;10739;52.198;20.908;2023-04-09T12:33:08;15.50;99.90
21163;DHT22;10739;52.198;20.908;2023-04-09T12:35:34;15.50;99.90
21163;DHT22;10739;52.198;20.908;2023-04-09T12:38:02;15.10;99.90
21163;DHT22;10739;52.198;20.908;2023-04-09T12:40:30;15.10;99.90
21163;DHT22;10739;52.198;20.908;2023-04-09T12:42:56;15.30;99.90
21163;DHT22;10739;52.198;20.908;2023-04-09T12:45:23;15.70;99.90
21163;DHT22;10739;52.198;20.908;2023-04-09T12:47:49;15.90;99.90
21163;DHT22;10739;52.198;20.908;2023-04-09T12:50:15;16.10;99.90
21163;DHT22;10739;52.198;20.908;2023-04-09T12:52:42;16.10;99.90
21163;DHT22;10739;52.198;20.908;2023-04-09T12:55:09;15.90;99.60
21163;DHT22;10739;52.198;20.908;2023-04-09T12:57:37;15.70;99.90
21163;DHT22;10739;52.198;20.908;2023-04-09T13:00:06;15.90;99.90
21163;DHT22;10739;52.198;20.908;2023-04-09T13:02:33;16.20;99.90
21163;DHT22;10739;52.198;20.908;2023-04-09T13:05:00;16.00;98.70
21163;DHT22;10739;52.198;20.908;2023-04-09T13:07:26;15.70;98.40
21163;DHT22;10739;52.198;20.908;2023-04-09T13:09:55;15.50;99.80
21163;DHT22;10739;52.198;20.908;2023-04-09T13:12:21;15.50;99.90
21163;DHT22;10739;52.198;20.908;2023-04-09T13:14:50;15.60;99.90
21163;DHT22;10739;52.198;20.908;2023-04-09T13:17:17;15.70;99.90
21163;DHT22;10739;52.198;20.908;2023-04-09T13:19:43;15.80;99.90
21163;DHT22;10739;52.198;20.908;2023-04-09T13:22:09;15.90;99.90
21163;DHT22;10739;52.198;20.908;2023-04-09T13:24:37;16.00;99.40
21163;DHT22;10739;52.198;20.908;2023-04-09T13:27:05;15.90;99.30
21163;DHT22;10739;52.198;20.908;2023-04-09T13:29:34;15.70;99.90
21163;DHT22;10739;52.198;20.908;2023-04-09T13:32:00;15.50;99.90
21163;DHT22;10739;52.198;20.908;2023-04-09T13:34:32;15.50;99.90
21163;DHT22;10739;52.198;20.908;2023-04-09T13:37:01;15.40;99.90
21163;DHT22;10739;52.198;20.908;2023-04-09T13:39:27;15.40;99.90
21163;DHT22;10739;52.198;20.908;2023-04-09T13:41:54;15.10;99.90
21163;DHT22;10739;52.198;20.908;2023-04-09T13:44:21;15.00;99.90
21163;DHT22;10739;52.198;20.908;2023-04-09T13:46:49;14.80;99.90
21163;DHT22;10739;52.198;20.908;2023-04-09T13:49:15;14.50;99.90
21163;DHT22;10739;52.198;20.908;2023-04-09T13:51:41;14.20;99.90
21163;DHT22;10739;52.198;20.908;2023-04-09T13:54:08;14.00;99.90
21163;DHT22;10739;52.198;20.908;2023-04-09T13:56:36;13.70;99.90
21163;DHT22;10739;52.198;20.908;2023-04-09T13:59:03;13.60;99.90
21163;DHT22;10739;52.198;20.908;2023-04-09T14:01:30;13.50;99.90
21163;DHT22;10739;52.198;20.908;2023-04-09T14:03:56;13.50;99.90
21163;DHT22;10739;52.198;20.908;2023-04-09T14:06:22;13.50;99.90
21163;DHT22;10739;52.198;20.908;2023-04-09T14:08:48;13.50;99.90
21163;DHT22;10739;52.198;20.908;2023-04-09T14:11:15;13.50;99.90
21163;DHT22;10739;52.198;20.908;2023-04-09T14:13:41;13.30;99.90
21163;DHT22;10739;52.198;20.908;2023-04-09T14:16:08;13.30;99.90
21163;DHT22;10739;52.198;20.908;2023-04-09T14:18:34;13.30;99.90
21163;DHT22;10739;52.198;20.908;2023-04-09T14:21:01;13.30;99.90
21163;DHT22;10739;52.198;20.908;2023-04-09T14:23:27;13.30;99.90
21163;DHT22;10739;52.198;20.908;2023-04-09T14:25:53;13.50;99.90
21163;DHT22;10739;52.198;20.908;2023-04-09T14:28:20;14.00;99.90
21163;DHT22;10739;52.198;20.908;2023-04-09T14:30:48;14.60;99.90
21163;DHT22;10739;52.198;20.908;2023-04-09T14:33:14;14.70;99.90
21163;DHT22;10739;52.198;20.908;2023-04-09T14:35:40;14.60;99.90
21163;DHT22;10739;52.198;20.908;2023-04-09T14:38:06;14.50;99.90
21163;DHT22;10739;52.198;20.908;2023-04-09T14:40:35;14.40;99.90
21163;DHT22;10739;52.198;20.908;2023-04-09T14:43:01;14.40;99.90
21163;DHT22;10739;52.198;20.908;2023-04-09T14:45:28;14.40;99.90
21163;DHT22;10739;52.198;20.908;2023-04-09T14:47:54;14.20;99.90
21163;DHT22;10739;52.198;20.908;2023-04-09T14:50:20;14.10;99.90
21163;DHT22;10739;52.198;20.908;2023-04-09T14:52:47;14.00;99.90
21163;DHT22;10739;52.198;20.908;2023-04-09T14:55:14;14.00;99.90
21163;DHT22;10739;52.198;20.908;2023-04-09T14:57:41;14.00;99.90
21163;DHT22;10739;52.198;20.908;2023-04-09T15:00:08;13.90;99.90
21163;DHT22;10739;52.198;20.908;2023-04-09T15:02:36;13.90;99.90
21163;DHT22;10739;52.198;20.908;2023-04-09T15:05:06;13.90;99.90
21163;DHT22;10739;52.198;20.908;2023-04-09T15:07:33;13.90;99.90
21163;DHT22;10739;52.198;20.908;2023-04-09T15:09:59;13.90;99.90
21163;DHT22;10739;52.198;20.908;2023-04-09T15:12:27;13.80;99.90
21163;DHT22;10739;52.198;20.908;2023-04-09T15:14:55;13.90;99.90
21163;DHT22;10739;52.198;20.908;2023-04-09T15:17:22;14.00;99.90
21163;DHT22;10739;52.198;20.908;2023-04-09T15:19:49;14.00;99.90
21163;DHT22;10739;52.198;20.908;2023-04-09T15:22:17;14.10;99.90
21163;DHT22;10739;52.198;20.908;2023-04-09T15:24:43;14.20;99.90
21163;DHT22;10739;52.198;20.908;2023-04-09T15:27:10;14.30;99.90
21163;DHT22;10739;52.198;20.908;2023-04-09T15:29:36;14.30;99.90
21163;DHT22;10739;52.198;20.908;2023-04-09T15:32:02;14.30;99.90
21163;DHT22;10739;52.198;20.908;2023-04-09T15:34:28;14.30;99.90
21163;DHT22;10739;52.198;20.908;2023-04-09T15:36:55;14.40;99.90
21163;DHT22;10739;52.198;20.908;2023-04-09T15:39:22;14.40;99.90
21163;DHT22;10739;52.198;20.908;2023-04-09T15:41:49;14.40;99.90
21163;DHT22;10739;52.198;20.908;2023-04-09T15:44:15;14.30;99.90
21163;DHT22;10739;52.198;20.908;2023-04-09T15:46:42;14.20;99.90
21163;DHT22;10739;52.198;20.908;2023-04-09T15:49:08;14.10;99.90
21163;DHT22;10739;52.198;20.908;2023-04-09T15:51:35;14.10;99.90